Time;durP1;ratioP1;P1;durP2;ratioP2;P2;SDS_P1;SDS_P2;PMS_P1;PMS_P2;Temp;Humidity;BMP_temperature;BMP_pressure;BME280_temperature;BME280_humidity;BME280_pressure;Samples;Min_cycle;Max_cycle;Signal;HPM_P1;HPM_P2
2021/08/01 00:00:28;;;;;;;4.30;3.90;;;21.20;63.10;;;;;;1486974;40;20029;-57
2021/08/01 00:01:49;;;;;;;4.30;3.63;;;21.30;63.20;;;;;;1488185;39;20040;-55
2021/08/01 00:03:10;;;;;;;3.95;3.65;;;21.30;63.20;;;;;;1486165;39;20036;-56
2021/08/01 00:04:31;;;;;;;6.35;4.22;;;21.20;63.30;;;;;;1478978;40;20023;-55
2021/08/01 00:05:52;;;;;;;4.72;3.80;;;21.30;63.30;;;;;;1485027;40;20032;-55
2021/08/01 00:07:13;;;;;;;4.72;4.22;;;21.20;63.40;;;;;;1487344;40;20020;-56
2021/08/01 00:08:33;;;;;;;5.00;4.10;;;21.20;63.40;;;;;;1487773;39;20031;-55
2021/08/01 00:09:59;;;;;;;4.78;3.90;;;21.20;63.40;;;;;;1487650;39;20116;-56
2021/08/01 00:11:20;;;;;;;4.68;3.72;;;21.20;63.70;;;;;;1487300;40;20039;-56
2021/08/01 00:12:42;;;;;;;4.05;3.60;;;21.20;63.50;;;;;;1487200;40;20020;-57
2021/08/01 00:14:03;;;;;;;3.90;3.60;;;21.20;63.60;;;;;;1486738;40;20040;-54
2021/08/01 00:15:24;;;;;;;3.67;3.38;;;21.20;63.70;;;;;;1486911;40;20032;-56
2021/08/01 00:16:46;;;;;;;4.00;3.70;;;21.20;63.80;;;;;;1487945;40;20027;-57
2021/08/01 00:18:06;;;;;;;4.72;3.70;;;21.20;63.80;;;;;;1487018;40;20039;-57
2021/08/01 00:19:27;;;;;;;4.60;3.28;;;21.20;63.80;;;;;;1487485;40;20069;-57
2021/08/01 00:20:49;;;;;;;8.30;3.95;;;21.20;63.80;;;;;;1486845;40;20378;-57
2021/08/01 00:22:10;;;;;;;5.05;3.60;;;21.20;63.80;;;;;;1487428;40;20434;-55
2021/08/01 00:23:31;;;;;;;3.70;3.40;;;21.20;63.80;;;;;;1487411;40;20048;-56
2021/08/01 00:24:52;;;;;;;5.10;3.55;;;21.20;63.80;;;;;;1487539;40;20031;-55
2021/08/01 00:26:13;;;;;;;4.65;4.00;;;21.20;64.00;;;;;;1487663;40;20024;-57
2021/08/01 00:27:35;;;;;;;4.00;3.35;;;21.20;64.00;;;;;;1487906;40;20032;-55
2021/08/01 00:28:56;;;;;;;3.90;3.60;;;21.10;64.00;;;;;;1486496;40;20039;-57
2021/08/01 00:30:17;;;;;;;5.65;4.05;;;21.10;64.10;;;;;;1488095;40;20055;-54
2021/08/01 00:31:37;;;;;;;3.83;3.42;;;21.10;64.30;;;;;;1487672;40;20028;-57
2021/08/01 00:32:59;;;;;;;3.67;3.38;;;21.10;64.20;;;;;;1487470;40;20109;-57
2021/08/01 00:34:20;;;;;;;4.45;3.60;;;21.10;64.20;;;;;;1487200;40;20039;-55
2021/08/01 00:35:41;;;;;;;3.55;3.25;;;21.10;64.20;;;;;;1487524;40;20542;-58
2021/08/01 00:37:03;;;;;;;4.72;3.83;;;21.10;64.30;;;;;;1482035;40;20033;-56
2021/08/01 00:38:24;;;;;;;4.32;3.60;;;21.10;64.40;;;;;;1485759;40;20024;-57
2021/08/01 00:39:45;;;;;;;3.53;3.22;;;21.10;64.40;;;;;;1487129;40;20036;-56
2021/08/01 00:41:06;;;;;;;3.50;3.20;;;21.10;64.50;;;;;;1487232;40;20312;-57
2021/08/01 00:42:27;;;;;;;3.70;3.30;;;21.10;64.50;;;;;;1486709;40;20108;-56
2021/08/01 00:43:48;;;;;;;3.47;3.17;;;21.10;64.60;;;;;;1485987;40;20028;-57
2021/08/01 00:45:09;;;;;;;4.00;3.58;;;21.10;64.60;;;;;;1487469;40;20055;-57
2021/08/01 00:46:30;;;;;;;3.85;3.50;;;21.00;64.60;;;;;;1488018;40;20044;-57
2021/08/01 00:47:54;;;;;;;3.85;3.55;;;21.00;64.70;;;;;;1486866;40;20120;-57
2021/08/01 00:49:15;;;;;;;3.50;3.20;;;21.00;64.70;;;;;;1486153;40;20027;-56
2021/08/01 00:50:36;;;;;;;3.70;3.40;;;21.00;64.70;;;;;;1487120;40;20384;-57
2021/08/01 00:51:57;;;;;;;4.57;3.63;;;21.00;64.80;;;;;;1483071;40;20428;-56
2021/08/01 00:53:18;;;;;;;4.00;3.65;;;21.00;64.90;;;;;;1486709;40;20052;-56
2021/08/01 00:54:39;;;;;;;3.80;3.40;;;21.00;65.00;;;;;;1487774;40;20036;-57
2021/08/01 00:56:00;;;;;;;3.78;3.47;;;21.00;65.00;;;;;;1486713;40;20032;-55
2021/08/01 00:57:20;;;;;;;4.28;3.90;;;21.00;65.10;;;;;;1486577;40;20152;-55
2021/08/01 00:58:41;;;;;;;5.60;4.13;;;21.00;65.80;;;;;;1487507;40;20028;-54
2021/08/01 01:00:31;;;;;;;4.47;3.50;;;20.90;65.20;;;;;;1487614;40;20327;-55
2021/08/01 01:02:06;;;;;;;3.97;3.58;;;20.90;65.50;;;;;;1487533;40;20017;-56
2021/08/01 01:03:42;;;;;;;4.15;3.58;;;20.90;65.40;;;;;;1487576;40;20047;-55
2021/08/01 01:05:23;;;;;;;4.60;4.10;;;20.90;65.60;;;;;;1486784;40;20024;-55
2021/08/01 01:07:15;;;;;;;3.78;3.40;;;20.90;65.50;;;;;;1487320;40;20273;-55
2021/08/01 01:09:00;;;;;;;3.95;3.50;;;20.90;65.70;;;;;;1486753;40;20028;-55
2021/08/01 01:10:37;;;;;;;3.85;3.45;;;20.90;65.90;;;;;;1486621;40;20360;-55
2021/08/01 01:12:04;;;;;;;4.25;3.78;;;20.90;65.60;;;;;;1488369;39;20157;-57
2021/08/01 01:13:29;;;;;;;4.32;3.80;;;20.90;65.40;;;;;;1487601;40;20031;-56
2021/08/01 01:14:54;;;;;;;5.18;3.97;;;20.90;65.40;;;;;;1486486;40;20041;-58
2021/08/01 01:16:15;;;;;;;4.32;3.90;;;20.90;65.60;;;;;;1486646;40;20025;-56
2021/08/01 01:17:37;;;;;;;5.80;3.85;;;20.90;65.40;;;;;;1487375;40;20048;-58
2021/08/01 01:19:00;;;;;;;4.85;4.32;;;20.90;65.60;;;;;;1487134;40;20032;-56
2021/08/01 01:20:29;;;;;;;3.78;3.47;;;20.90;65.70;;;;;;1486868;40;20117;-56
2021/08/01 01:22:06;;;;;;;5.23;3.90;;;20.90;66.10;;;;;;1487682;39;20040;-58
2021/08/01 01:23:49;;;;;;;3.65;3.35;;;20.90;66.10;;;;;;1487184;40;20160;-56
2021/08/01 01:25:19;;;;;;;5.72;4.00;;;20.90;66.30;;;;;;1487114;40;20105;-57
2021/08/01 01:26:59;;;;;;;4.50;4.00;;;20.90;65.90;;;;;;1486644;40;20239;-56
2021/08/01 01:28:25;;;;;;;5.30;3.85;;;20.90;65.90;;;;;;1482347;40;20048;-56
2021/08/01 01:29:49;;;;;;;3.67;3.38;;;20.90;65.40;;;;;;1484551;40;20053;-58
2021/08/01 01:31:23;;;;;;;5.68;3.85;;;20.90;65.60;;;;;;1487117;40;20043;-56
2021/08/01 01:33:00;;;;;;;4.07;3.50;;;20.90;66.00;;;;;;1486785;40;20044;-56
2021/08/01 01:34:33;;;;;;;4.13;3.78;;;20.90;65.90;;;;;;1486485;40;20036;-57
2021/08/01 01:35:57;;;;;;;4.88;3.72;;;20.90;65.90;;;;;;1486532;40;20121;-57
2021/08/01 01:37:19;;;;;;;3.67;3.33;;;20.90;65.70;;;;;;1486189;40;20028;-57
2021/08/01 01:38:40;;;;;;;3.88;3.58;;;20.90;65.70;;;;;;1486447;40;20343;-56
2021/08/01 01:40:02;;;;;;;4.38;3.90;;;20.90;65.70;;;;;;1487089;39;20032;-59
2021/08/01 01:41:25;;;;;;;4.30;3.88;;;20.90;65.90;;;;;;1486984;40;20113;-56
2021/08/01 01:42:48;;;;;;;3.88;3.47;;;20.80;65.80;;;;;;1487617;40;20037;-57
2021/08/01 01:44:10;;;;;;;5.28;3.58;;;20.90;66.60;;;;;;1482110;40;20040;-58
2021/08/01 01:45:31;;;;;;;4.30;3.90;;;20.90;65.90;;;;;;1483206;40;20040;-57
2021/08/01 01:46:52;;;;;;;7.05;4.03;;;20.80;66.00;;;;;;1482233;40;20041;-57
2021/08/01 01:48:13;;;;;;;4.50;4.13;;;20.80;66.60;;;;;;1486070;40;20118;-56
2021/08/01 01:49:36;;;;;;;3.95;3.65;;;20.80;65.90;;;;;;1487370;40;20040;-56
2021/08/01 01:50:58;;;;;;;4.13;3.70;;;20.80;66.00;;;;;;1487891;39;20036;-59
2021/08/01 01:52:20;;;;;;;5.22;4.28;;;20.80;65.90;;;;;;1487109;40;20020;-57
2021/08/01 01:53:42;;;;;;;4.13;3.72;;;20.80;66.60;;;;;;1488364;39;20038;-57
2021/08/01 01:55:05;;;;;;;5.78;3.90;;;20.80;66.00;;;;;;1487850;40;20040;-55
2021/08/01 01:56:32;;;;;;;5.35;3.95;;;20.70;66.00;;;;;;1487570;40;20025;-56
2021/08/01 01:57:54;;;;;;;6.10;4.63;;;20.70;66.00;;;;;;1486689;40;20457;-57
2021/08/01 01:59:15;;;;;;;4.97;4.47;;;20.70;65.90;;;;;;1487315;40;20131;-56
2021/08/01 02:00:36;;;;;;;5.22;4.32;;;20.70;65.90;;;;;;1486873;40;20032;-56
2021/08/01 02:01:57;;;;;;;5.32;3.53;;;20.70;65.90;;;;;;1486966;40;20117;-57
2021/08/01 02:03:18;;;;;;;5.00;4.30;;;20.70;66.00;;;;;;1487504;40;20385;-54
2021/08/01 02:04:39;;;;;;;4.53;3.70;;;20.70;66.00;;;;;;1487940;39;20036;-57
2021/08/01 02:06:00;;;;;;;5.93;4.38;;;20.70;66.10;;;;;;1487455;40;20046;-58
2021/08/01 02:07:21;;;;;;;4.90;4.38;;;20.70;66.10;;;;;;1487015;40;20020;-58
2021/08/01 02:09:21;;;;;;;4.80;4.30;;;20.60;66.00;;;;;;1487047;40;20032;-57
2021/08/01 02:10:48;;;;;;;6.85;4.60;;;20.60;66.70;;;;;;1488488;39;21247;-57
2021/08/01 02:12:15;;;;;;;5.70;4.30;;;20.60;66.10;;;;;;1490857;39;20043;-56
2021/08/01 02:14:02;;;;;;;4.65;3.90;;;20.60;66.10;;;;;;1491896;39;20056;-57
2021/08/01 02:15:31;;;;;;;6.35;4.43;;;20.60;66.00;;;;;;1492711;39;20040;-57
2021/08/01 02:17:03;;;;;;;4.40;4.00;;;20.60;65.90;;;;;;1490812;39;20020;-56
2021/08/01 02:18:29;;;;;;;4.47;4.07;;;20.50;65.90;;;;;;1489802;39;20027;-57
2021/08/01 02:19:52;;;;;;;4.90;4.32;;;20.50;65.90;;;;;;1491482;39;20039;-57
2021/08/01 02:21:13;;;;;;;5.13;4.30;;;20.50;65.80;;;;;;1491183;39;20436;-56
2021/08/01 02:22:35;;;;;;;4.88;4.47;;;20.50;65.80;;;;;;1492001;39;20345;-57
2021/08/01 02:24:00;;;;;;;6.57;4.60;;;20.50;65.90;;;;;;1490802;39;20043;-57
2021/08/01 02:25:23;;;;;;;5.97;4.20;;;20.50;66.10;;;;;;1490294;39;20064;-58
2021/08/01 02:26:45;;;;;;;6.43;4.40;;;20.40;66.00;;;;;;1492393;39;20039;-58
2021/08/01 02:28:09;;;;;;;5.68;4.80;;;20.40;66.00;;;;;;1487901;39;20264;-57
2021/08/01 02:29:31;;;;;;;5.40;4.90;;;20.40;66.00;;;;;;1488657;39;20062;-58
2021/08/01 02:30:56;;;;;;;5.75;4.68;;;20.40;66.20;;;;;;1490792;39;20327;-57
2021/08/01 02:32:18;;;;;;;5.68;4.65;;;20.30;66.30;;;;;;1492292;39;20465;-57
2021/08/01 02:33:40;;;;;;;5.25;4.75;;;20.30;66.30;;;;;;1491288;39;20020;-57
2021/08/01 02:35:03;;;;;;;4.75;4.28;;;20.30;66.30;;;;;;1487936;40;20297;-57
2021/08/01 02:36:25;;;;;;;5.03;4.28;;;20.30;66.40;;;;;;1490937;39;20030;-55
2021/08/01 02:37:47;;;;;;;4.78;4.30;;;20.30;66.40;;;;;;1490288;39;20039;-58
2021/08/01 02:39:09;;;;;;;4.40;4.00;;;20.30;66.40;;;;;;1492597;39;20044;-57
2021/08/01 02:40:35;;;;;;;5.15;4.57;;;20.20;66.40;;;;;;1490949;39;20024;-57
2021/08/01 02:41:59;;;;;;;5.28;4.60;;;20.20;66.60;;;;;;1493282;39;20540;-56
2021/08/01 02:43:22;;;;;;;7.18;4.78;;;20.20;66.60;;;;;;1490285;39;20516;-58
2021/08/01 02:44:44;;;;;;;5.03;4.25;;;20.20;66.60;;;;;;1490022;39;20035;-57
2021/08/01 02:46:06;;;;;;;6.93;5.13;;;20.20;66.60;;;;;;1490923;39;20047;-55
2021/08/01 02:47:30;;;;;;;6.28;4.53;;;20.10;66.70;;;;;;1491510;39;20016;-54
2021/08/01 02:48:55;;;;;;;5.03;4.55;;;20.10;66.90;;;;;;1492550;39;20101;-54
2021/08/01 02:50:20;;;;;;;6.25;4.40;;;20.10;67.00;;;;;;1490247;39;20031;-56
2021/08/01 02:51:42;;;;;;;5.80;4.45;;;20.10;66.90;;;;;;1491212;39;20020;-57
2021/08/01 02:53:08;;;;;;;5.57;4.38;;;20.10;66.90;;;;;;1493235;39;20038;-54
2021/08/01 02:54:30;;;;;;;5.55;4.43;;;20.00;67.00;;;;;;1487918;39;20028;-54
2021/08/01 02:55:54;;;;;;;4.63;4.22;;;20.00;66.90;;;;;;1489995;39;20059;-54
2021/08/01 02:57:16;;;;;;;6.25;4.68;;;20.00;66.80;;;;;;1491759;39;20035;-54
2021/08/01 02:58:39;;;;;;;4.88;4.35;;;20.00;66.70;;;;;;1493125;39;20031;-56
2021/08/01 03:00:02;;;;;;;4.95;4.45;;;20.00;66.80;;;;;;1493433;39;20067;-56
2021/08/01 03:01:24;;;;;;;6.85;4.07;;;20.00;66.80;;;;;;1490909;39;20053;-53
2021/08/01 03:02:50;;;;;;;4.97;4.15;;;20.00;66.70;;;;;;1489351;39;20028;-58
2021/08/01 03:04:15;;;;;;;4.40;4.00;;;20.00;66.90;;;;;;1491616;39;20039;-56
2021/08/01 03:05:36;;;;;;;4.60;4.20;;;19.90;66.80;;;;;;1490435;39;21944;-54
2021/08/01 03:06:57;;;;;;;8.57;4.07;;;19.90;66.80;;;;;;1491710;39;20040;-56
2021/08/01 03:08:19;;;;;;;5.13;4.63;;;19.90;66.80;;;;;;1492079;39;20031;-55
2021/08/01 03:09:40;;;;;;;6.20;4.63;;;19.90;66.80;;;;;;1492126;39;20039;-54
2021/08/01 03:11:01;;;;;;;4.72;4.28;;;19.90;66.80;;;;;;1491277;39;20024;-55
2021/08/01 03:12:22;;;;;;;5.03;4.60;;;19.80;66.90;;;;;;1492863;39;20035;-56
2021/08/01 03:13:43;;;;;;;5.30;4.47;;;19.80;66.80;;;;;;1492149;39;20563;-56
2021/08/01 03:15:04;;;;;;;5.00;4.47;;;19.80;66.90;;;;;;1491585;39;20036;-56
2021/08/01 03:16:25;;;;;;;4.82;4.38;;;19.80;66.80;;;;;;1492637;39;20056;-53
2021/08/01 03:17:46;;;;;;;5.32;3.95;;;19.80;66.70;;;;;;1491170;39;20031;-58
2021/08/01 03:19:07;;;;;;;4.32;3.92;;;19.80;66.80;;;;;;1492151;39;20068;-56
2021/08/01 03:20:28;;;;;;;6.00;4.13;;;19.70;66.70;;;;;;1492498;39;20030;-56
2021/08/01 03:21:49;;;;;;;4.70;4.28;;;19.70;66.70;;;;;;1493099;39;20042;-57
2021/08/01 03:23:10;;;;;;;5.82;4.05;;;19.70;66.70;;;;;;1492194;39;20027;-56
2021/08/01 03:24:31;;;;;;;7.43;4.68;;;19.70;66.80;;;;;;1490867;39;20040;-58
2021/08/01 03:25:52;;;;;;;4.68;4.28;;;19.70;66.90;;;;;;1492201;39;20461;-58
2021/08/01 03:27:13;;;;;;;5.53;4.80;;;19.70;67.00;;;;;;1491470;39;20052;-55
2021/08/01 03:28:34;;;;;;;4.85;4.25;;;19.70;67.00;;;;;;1491566;39;20028;-58
2021/08/01 03:29:55;;;;;;;5.18;4.13;;;19.60;67.00;;;;;;1492196;39;20093;-56
2021/08/01 03:31:16;;;;;;;4.38;3.92;;;19.70;67.10;;;;;;1490836;39;20023;-56
2021/08/01 03:32:37;;;;;;;4.43;4.03;;;19.60;67.00;;;;;;1491610;39;20062;-57
2021/08/01 03:33:58;;;;;;;4.78;4.05;;;19.60;67.00;;;;;;1491972;39;20027;-57
2021/08/01 03:35:20;;;;;;;4.30;3.90;;;19.60;67.00;;;;;;1491655;39;20032;-58
2021/08/01 03:36:41;;;;;;;4.55;4.13;;;19.60;67.00;;;;;;1492294;39;20067;-57
2021/08/01 03:38:02;;;;;;;4.65;4.25;;;19.60;67.00;;;;;;1487321;39;20032;-54
2021/08/01 03:39:23;;;;;;;5.30;4.25;;;19.60;67.10;;;;;;1490290;39;20057;-57
2021/08/01 03:40:44;;;;;;;4.80;4.28;;;19.60;67.20;;;;;;1491291;39;20039;-58
2021/08/01 03:42:05;;;;;;;4.82;3.92;;;19.60;67.20;;;;;;1491777;39;20038;-57
2021/08/01 03:43:26;;;;;;;4.88;4.38;;;19.50;67.10;;;;;;1491661;39;20027;-58
2021/08/01 03:44:47;;;;;;;6.13;4.50;;;19.60;67.20;;;;;;1491329;39;20111;-57
2021/08/01 03:46:08;;;;;;;6.97;4.93;;;19.60;67.30;;;;;;1492129;39;20031;-57
2021/08/01 03:47:29;;;;;;;5.70;5.05;;;19.50;67.40;;;;;;1491278;39;20032;-56
2021/08/01 03:48:50;;;;;;;7.82;4.90;;;19.50;67.40;;;;;;1492796;39;20035;-55
2021/08/01 03:50:11;;;;;;;6.90;4.47;;;19.50;67.40;;;;;;1491123;39;20537;-55
2021/08/01 03:51:32;;;;;;;5.57;4.55;;;19.50;68.20;;;;;;1491017;39;20031;-54
2021/08/01 03:52:53;;;;;;;6.15;4.65;;;19.50;67.60;;;;;;1492135;39;20079;-55
2021/08/01 03:54:14;;;;;;;5.05;4.63;;;19.50;67.60;;;;;;1492129;39;20331;-56
2021/08/01 03:55:35;;;;;;;4.32;3.92;;;19.50;67.70;;;;;;1491712;39;20031;-57
2021/08/01 03:56:56;;;;;;;6.72;4.57;;;19.50;67.70;;;;;;1491441;39;20047;-54
2021/08/01 03:58:16;;;;;;;4.60;4.20;;;19.50;67.70;;;;;;1491363;39;20017;-57
2021/08/01 03:59:37;;;;;;;5.78;4.70;;;19.50;67.70;;;;;;1492405;39;20265;-56
2021/08/01 04:00:58;;;;;;;7.30;4.65;;;19.50;67.70;;;;;;1491746;39;20047;-58
2021/08/01 04:02:19;;;;;;;7.07;5.00;;;19.50;67.80;;;;;;1490387;39;20094;-57
2021/08/01 04:03:40;;;;;;;7.80;4.80;;;19.50;67.80;;;;;;1491263;39;20035;-56
2021/08/01 04:05:01;;;;;;;6.00;4.70;;;19.40;67.70;;;;;;1492373;39;20284;-56
2021/08/01 04:06:22;;;;;;;5.47;4.47;;;19.40;67.60;;;;;;1491844;39;20262;-56
2021/08/01 04:07:43;;;;;;;7.45;5.00;;;19.40;67.60;;;;;;1492008;39;20072;-58
2021/08/01 04:09:04;;;;;;;9.25;4.93;;;19.40;67.70;;;;;;1486965;39;20044;-55
2021/08/01 04:10:25;;;;;;;5.43;4.93;;;19.40;67.70;;;;;;1489338;39;20036;-57
2021/08/01 04:11:46;;;;;;;5.93;5.35;;;19.40;67.70;;;;;;1491072;39;20020;-55
2021/08/01 04:13:07;;;;;;;6.50;5.22;;;19.40;67.80;;;;;;1492593;39;20274;-56
2021/08/01 04:14:31;;;;;;;7.43;5.57;;;19.30;67.80;;;;;;1490840;39;20023;-55
2021/08/01 04:15:52;;;;;;;7.50;6.03;;;19.40;68.00;;;;;;1491107;39;20027;-55
2021/08/01 04:17:13;;;;;;;7.10;6.30;;;19.30;68.00;;;;;;1489555;39;20044;-56
2021/08/01 04:18:34;;;;;;;7.85;6.05;;;19.40;68.10;;;;;;1486103;39;20028;-57
2021/08/01 04:19:56;;;;;;;8.15;6.43;;;19.30;68.10;;;;;;1490831;39;20355;-58
2021/08/01 04:21:16;;;;;;;10.40;6.78;;;19.30;68.10;;;;;;1487710;39;20070;-57
2021/08/01 04:22:37;;;;;;;10.85;7.15;;;19.30;68.10;;;;;;1490118;39;20583;-55
2021/08/01 04:23:58;;;;;;;8.52;7.30;;;19.30;68.10;;;;;;1492506;39;20473;-55
2021/08/01 04:25:20;;;;;;;8.88;7.32;;;19.30;68.10;;;;;;1491853;39;20352;-56
2021/08/01 04:26:41;;;;;;;9.90;7.95;;;19.30;68.20;;;;;;1492056;39;20023;-57
2021/08/01 04:28:02;;;;;;;9.43;6.88;;;19.30;68.20;;;;;;1491039;39;20088;-57
2021/08/01 04:29:23;;;;;;;9.48;7.55;;;19.30;68.20;;;;;;1491489;39;20367;-58
2021/08/01 04:30:44;;;;;;;12.05;7.95;;;19.20;68.10;;;;;;1491751;39;20124;-54
2021/08/01 04:32:05;;;;;;;8.85;7.57;;;19.20;68.10;;;;;;1491691;39;20055;-56
2021/08/01 04:33:26;;;;;;;11.57;7.97;;;19.20;68.10;;;;;;1489859;39;20020;-56
2021/08/01 04:34:47;;;;;;;14.20;8.15;;;19.30;68.20;;;;;;1490883;39;20020;-57
2021/08/01 04:36:08;;;;;;;10.25;7.63;;;19.20;68.20;;;;;;1490419;39;20133;-55
2021/08/01 04:37:29;;;;;;;9.90;7.75;;;19.20;68.20;;;;;;1489583;39;20032;-55
2021/08/01 04:38:50;;;;;;;9.48;7.20;;;19.20;68.20;;;;;;1490423;39;20121;-56
2021/08/01 04:40:11;;;;;;;11.07;8.05;;;19.20;68.20;;;;;;1490310;39;20023;-54
2021/08/01 04:41:32;;;;;;;9.65;7.57;;;19.20;68.20;;;;;;1491235;39;20020;-56
2021/08/01 04:42:53;;;;;;;10.05;7.60;;;19.20;68.30;;;;;;1490558;39;20036;-55
2021/08/01 04:44:14;;;;;;;9.98;7.78;;;19.10;68.30;;;;;;1491268;39;20028;-55
2021/08/01 04:45:35;;;;;;;11.20;7.80;;;19.10;68.30;;;;;;1491166;39;20120;-55
2021/08/01 04:46:56;;;;;;;11.18;7.57;;;19.10;68.30;;;;;;1489857;39;20128;-56
2021/08/01 04:48:17;;;;;;;10.70;7.35;;;19.10;68.30;;;;;;1492199;39;20031;-55
2021/08/01 04:49:38;;;;;;;13.07;7.50;;;19.10;68.30;;;;;;1491020;39;20024;-55
2021/08/01 04:50:58;;;;;;;9.05;7.05;;;19.10;68.40;;;;;;1491980;39;21223;-55
2021/08/01 04:52:20;;;;;;;11.48;7.40;;;19.10;68.40;;;;;;1490566;39;20244;-57
2021/08/01 04:53:40;;;;;;;8.40;6.88;;;19.10;68.40;;;;;;1490785;39;20442;-56
2021/08/01 04:55:02;;;;;;;11.32;7.00;;;19.10;68.30;;;;;;1489280;39;20043;-56
2021/08/01 04:56:22;;;;;;;8.77;7.47;;;19.10;68.30;;;;;;1490344;39;20067;-53
2021/08/01 04:57:43;;;;;;;10.45;7.13;;;19.00;68.30;;;;;;1489957;39;20036;-56
2021/08/01 04:59:04;;;;;;;9.68;6.65;;;19.00;68.40;;;;;;1490133;39;20039;-54
2021/08/01 05:00:25;;;;;;;11.25;6.63;;;19.00;68.40;;;;;;1490536;39;20016;-55
2021/08/01 05:01:49;;;;;;;8.20;6.95;;;19.00;68.50;;;;;;1488742;39;20031;-55
2021/08/01 05:03:10;;;;;;;9.60;7.00;;;19.00;68.60;;;;;;1490232;39;20368;-54
2021/08/01 05:04:30;;;;;;;10.43;7.32;;;19.00;68.60;;;;;;1489121;39;20020;-55
2021/08/01 05:05:51;;;;;;;9.60;6.30;;;19.00;68.60;;;;;;1490248;39;20036;-54
2021/08/01 05:07:12;;;;;;;11.10;6.72;;;19.00;68.80;;;;;;1491032;39;20043;-55
2021/08/01 05:08:33;;;;;;;7.55;6.60;;;19.00;68.80;;;;;;1490335;39;20341;-54
2021/08/01 05:09:54;;;;;;;10.57;6.43;;;18.90;68.70;;;;;;1487076;39;20035;-55
2021/08/01 05:11:15;;;;;;;9.35;6.82;;;18.90;68.70;;;;;;1483867;40;20043;-55
2021/08/01 05:12:36;;;;;;;11.00;6.47;;;18.90;68.80;;;;;;1487471;40;20024;-55
2021/08/01 05:13:57;;;;;;;7.80;5.90;;;18.90;68.80;;;;;;1487890;40;20043;-57
2021/08/01 05:15:18;;;;;;;9.88;6.78;;;18.90;68.90;;;;;;1485094;40;20035;-57
2021/08/01 05:16:40;;;;;;;7.47;6.25;;;18.90;68.90;;;;;;1487316;40;20039;-56
2021/08/01 05:18:04;;;;;;;8.73;6.57;;;18.80;68.90;;;;;;1487475;40;20040;-56
2021/08/01 05:19:24;;;;;;;11.07;6.47;;;18.90;69.20;;;;;;1487618;40;20009;-57
2021/08/01 05:20:48;;;;;;;9.82;6.15;;;18.90;69.20;;;;;;1487426;39;20122;-55
2021/08/01 05:22:10;;;;;;;6.25;5.65;;;18.90;69.10;;;;;;1487083;40;20032;-56
2021/08/01 05:23:31;;;;;;;6.68;5.85;;;18.80;69.20;;;;;;1487375;40;20042;-55
2021/08/01 05:24:52;;;;;;;9.05;5.75;;;18.80;69.20;;;;;;1487918;40;20076;-55
2021/08/01 05:26:13;;;;;;;7.82;5.70;;;18.90;69.30;;;;;;1487919;40;20067;-55
2021/08/01 05:27:34;;;;;;;8.93;6.05;;;18.80;69.40;;;;;;1487507;40;20044;-55
2021/08/01 05:28:55;;;;;;;10.63;5.88;;;18.90;69.50;;;;;;1487493;40;20047;-53
2021/08/01 05:30:16;;;;;;;9.98;6.03;;;18.90;69.60;;;;;;1486577;40;20031;-55
2021/08/01 05:31:37;;;;;;;8.80;5.95;;;18.80;69.60;;;;;;1486518;40;20353;-54
2021/08/01 05:33:03;;;;;;;9.05;6.45;;;18.90;69.60;;;;;;1486926;40;20048;-54
2021/08/01 05:34:23;;;;;;;10.13;5.75;;;18.90;69.60;;;;;;1488110;40;20032;-55
2021/08/01 05:35:45;;;;;;;7.72;5.53;;;18.90;69.70;;;;;;1487495;40;20035;-53
2021/08/01 05:37:06;;;;;;;10.63;6.20;;;18.90;69.80;;;;;;1483980;40;20044;-54
2021/08/01 05:38:26;;;;;;;8.45;5.63;;;18.90;69.90;;;;;;1487316;40;20024;-56
2021/08/01 05:39:47;;;;;;;8.73;5.88;;;18.90;69.90;;;;;;1488495;39;20039;-56
2021/08/01 05:41:14;;;;;;;8.60;6.00;;;18.90;69.90;;;;;;1488803;39;20020;-55
2021/08/01 05:42:35;;;;;;;7.40;5.28;;;18.80;70.00;;;;;;1486941;39;20245;-56
2021/08/01 05:43:56;;;;;;;9.85;5.20;;;18.80;69.80;;;;;;1489004;39;20040;-56
2021/08/01 05:45:17;;;;;;;8.45;5.78;;;18.90;70.00;;;;;;1488968;39;20365;-54
2021/08/01 05:46:37;;;;;;;6.38;5.10;;;18.90;70.10;;;;;;1487841;39;20121;-55
2021/08/01 05:47:58;;;;;;;8.77;4.90;;;18.90;70.10;;;;;;1489567;39;20037;-55
2021/08/01 05:49:19;;;;;;;8.00;4.95;;;18.90;70.10;;;;;;1489767;39;20023;-55
2021/08/01 05:50:40;;;;;;;9.07;5.15;;;18.90;70.20;;;;;;1485777;39;20357;-55
2021/08/01 05:52:02;;;;;;;6.80;5.22;;;18.90;70.20;;;;;;1488692;39;20039;-54
2021/08/01 05:53:24;;;;;;;8.35;5.13;;;18.90;70.30;;;;;;1488916;39;20360;-56
2021/08/01 05:54:45;;;;;;;6.32;5.00;;;18.90;70.40;;;;;;1489320;39;20058;-56
2021/08/01 05:56:08;;;;;;;14.63;5.90;;;18.90;70.30;;;;;;1489558;39;20031;-55
2021/08/01 05:57:29;;;;;;;9.48;5.32;;;18.90;70.30;;;;;;1488715;39;20032;-57
2021/08/01 05:58:50;;;;;;;7.40;4.65;;;19.00;70.40;;;;;;1488133;39;20377;-55
2021/08/01 06:00:11;;;;;;;6.53;4.80;;;19.00;70.40;;;;;;1487392;39;20424;-56
2021/08/01 06:01:32;;;;;;;7.18;5.25;;;19.00;70.40;;;;;;1488119;39;20304;-55
2021/08/01 06:02:54;;;;;;;10.98;5.20;;;19.00;70.40;;;;;;1488497;39;20036;-55
2021/08/01 06:04:15;;;;;;;7.95;5.63;;;19.00;70.50;;;;;;1490075;39;20016;-55
2021/08/01 06:05:36;;;;;;;7.88;5.07;;;19.00;70.40;;;;;;1487202;39;20028;-55
2021/08/01 06:06:57;;;;;;;8.98;5.22;;;19.00;70.30;;;;;;1488339;39;20351;-56
2021/08/01 06:08:17;;;;;;;8.57;4.68;;;19.00;70.40;;;;;;1487091;39;20031;-56
2021/08/01 06:09:39;;;;;;;9.63;5.70;;;19.10;70.40;;;;;;1489137;39;20368;-55
2021/08/01 06:11:01;;;;;;;8.98;5.05;;;19.10;70.40;;;;;;1488611;39;20051;-55
2021/08/01 06:12:22;;;;;;;11.07;5.43;;;19.10;70.50;;;;;;1488118;39;20020;-55
2021/08/01 06:13:43;;;;;;;8.85;5.70;;;19.10;70.70;;;;;;1487835;40;20051;-55
2021/08/01 06:15:05;;;;;;;7.93;5.90;;;19.10;70.50;;;;;;1487267;39;20029;-54
2021/08/01 06:16:26;;;;;;;9.10;4.97;;;19.10;70.70;;;;;;1488055;39;20039;-54
2021/08/01 06:17:47;;;;;;;9.93;5.35;;;19.20;70.90;;;;;;1488256;39;20028;-55
2021/08/01 06:19:08;;;;;;;9.80;5.43;;;19.20;71.00;;;;;;1487578;39;20039;-54
2021/08/01 06:20:29;;;;;;;6.90;4.60;;;19.20;71.10;;;;;;1482194;40;20306;-54
2021/08/01 06:21:50;;;;;;;11.80;5.82;;;19.30;71.20;;;;;;1484954;40;20048;-57
2021/08/01 06:23:11;;;;;;;9.43;5.53;;;19.30;71.20;;;;;;1488063;39;20055;-55
2021/08/01 06:24:32;;;;;;;8.45;5.00;;;19.30;71.10;;;;;;1488866;39;20060;-56
2021/08/01 06:25:53;;;;;;;10.88;5.72;;;19.40;71.10;;;;;;1483148;39;20037;-57
2021/08/01 06:27:14;;;;;;;8.55;5.07;;;19.40;71.00;;;;;;1486815;39;20025;-56
2021/08/01 06:28:35;;;;;;;7.63;5.63;;;19.50;70.90;;;;;;1488400;39;20035;-57
2021/08/01 06:29:56;;;;;;;10.20;5.50;;;19.60;70.80;;;;;;1488483;39;20305;-55
2021/08/01 06:31:17;;;;;;;9.98;5.50;;;19.60;70.70;;;;;;1487359;40;20057;-55
2021/08/01 06:32:38;;;;;;;10.63;5.45;;;19.60;70.50;;;;;;1487206;39;20113;-59
2021/08/01 06:33:59;;;;;;;10.68;5.88;;;19.70;70.30;;;;;;1487342;39;20055;-59
2021/08/01 06:35:20;;;;;;;10.95;4.93;;;19.70;70.10;;;;;;1488296;39;20043;-58
2021/08/01 06:36:41;;;;;;;6.47;4.85;;;19.70;70.00;;;;;;1488070;39;20034;-59
2021/08/01 06:38:02;;;;;;;9.32;5.20;;;19.80;69.90;;;;;;1487608;40;20036;-59
2021/08/01 06:39:23;;;;;;;11.00;5.25;;;19.80;69.60;;;;;;1488264;39;20024;-59
2021/08/01 06:40:43;;;;;;;10.05;5.28;;;19.80;69.20;;;;;;1484239;40;20462;-59
2021/08/01 06:42:04;;;;;;;10.85;5.68;;;19.80;69.00;;;;;;1486128;40;20051;-58
2021/08/01 06:43:25;;;;;;;9.38;5.72;;;19.80;68.90;;;;;;1487764;40;20020;-59
2021/08/01 06:44:46;;;;;;;8.68;5.20;;;19.80;68.70;;;;;;1486542;40;20020;-59
2021/08/01 06:46:07;;;;;;;6.93;4.80;;;19.90;68.80;;;;;;1487300;40;20036;-59
2021/08/01 06:47:28;;;;;;;8.30;5.00;;;19.90;68.80;;;;;;1485258;40;20636;-60
2021/08/01 06:48:49;;;;;;;10.63;4.72;;;19.90;68.70;;;;;;1484805;40;20059;-58
2021/08/01 06:50:10;;;;;;;8.07;4.45;;;19.90;68.70;;;;;;1486325;40;20043;-59
2021/08/01 06:51:31;;;;;;;6.65;4.20;;;19.90;68.80;;;;;;1486729;39;20028;-58
2021/08/01 06:52:52;;;;;;;8.77;4.18;;;19.90;68.80;;;;;;1486096;40;20328;-58
2021/08/01 06:54:12;;;;;;;8.98;4.43;;;19.90;68.60;;;;;;1486419;40;20033;-59
2021/08/01 06:55:33;;;;;;;6.63;3.95;;;19.90;68.40;;;;;;1484371;40;20078;-58
2021/08/01 06:56:54;;;;;;;7.05;3.80;;;19.90;68.30;;;;;;1485065;40;20033;-58
2021/08/01 06:58:19;;;;;;;7.45;4.40;;;20.00;68.20;;;;;;1484694;40;20029;-59
2021/08/01 06:59:40;;;;;;;9.13;4.65;;;20.00;68.00;;;;;;1485752;40;20068;-59
2021/08/01 07:01:02;;;;;;;9.23;4.28;;;20.00;67.80;;;;;;1484939;40;20045;-59
2021/08/01 07:02:23;;;;;;;8.43;4.10;;;20.10;67.80;;;;;;1484762;40;20028;-59
2021/08/01 07:03:44;;;;;;;10.40;4.60;;;20.10;67.70;;;;;;1486701;40;20125;-58
2021/08/01 07:05:05;;;;;;;7.22;4.00;;;20.10;67.60;;;;;;1485063;40;20389;-59
2021/08/01 07:06:26;;;;;;;8.23;4.45;;;20.20;67.50;;;;;;1485935;40;20028;-59
2021/08/01 07:07:47;;;;;;;8.75;4.20;;;20.20;67.40;;;;;;1482851;40;20041;-59
2021/08/01 07:09:07;;;;;;;7.50;4.53;;;20.20;67.60;;;;;;1484143;40;20408;-59